Portada
METAR-TAF:

METAR-TAF

Aeroports :

Baroda, Índia

latitud: 22-19-46N, longitud: 73-13-10E, altitud: 39 m

Observació

L'informe es va fer fa 5 hores i 12 minuts, a les 14:30 UTC
Vent 6 kt del Est/Nord-Est
Temperatura 30°C
Humitat 52%
Pressió 1011 hPa
Visibilitat: 6000 m

METAR: VABO 161430Z 07006KT 6000 NSC 30/19 Q1011 NOSIG

Hora: 01:12 (19:42 UTC)

Pronòstic

L'informe es va fer fa 2 hores i 42 minuts, a les 17:00 UTC
Pronòstic vàlid del 16 a les 18 UTC al 17 a les 03 UTC
Vent 5 kt del Nord-Est
Visibilitat: 6000 m
Evolucionant progressivament
l' 17 a les 01 UTC al 17 a les 03 UTC
Vent 5 kt del Est/Nord-Est
Visibilitat: 4000 m
calitja

TAF: VABO 161700Z 1618/1703 05005KT 6000 NSC BECMG 1701/1703 07005KT 4000 HZ

Observacions i pronòstics meteorològics de més de 4000 aeroports (METAR i TAF).

Les estacions disponibles són els punts grocs i vermells al mapa.

Posi el ratolí al punt desitjat per veure el nom de l'estació.

Feu clic per veure les observacions i els pronòstics meteorològics.

Per canviar el mapa: feu clic els botons verds amb una creu de color negre per apropar; al botó verd amb un guió per allunyar la imatge; o en les fletxes verdes per a mapes adjacents.


METAR-TAF: